createdAt,value
2017-08-21T00:02:01.077Z,5.40
2017-08-21T00:04:28.581Z,4.93
2017-08-21T00:06:55.949Z,4.93
2017-08-21T00:09:23.257Z,4.63
2017-08-21T00:11:50.886Z,5.17
2017-08-21T00:14:18.189Z,4.80
2017-08-21T00:16:45.481Z,4.53
2017-08-21T00:19:12.817Z,5.23
2017-08-21T00:21:40.103Z,5.50
2017-08-21T00:24:07.409Z,4.90
2017-08-21T00:26:35.024Z,5.00
2017-08-21T00:29:02.510Z,4.87
2017-08-21T00:31:29.837Z,4.63
2017-08-21T00:33:57.493Z,4.83
2017-08-21T00:36:25.100Z,5.17
2017-08-21T00:38:52.417Z,4.57
2017-08-21T00:41:20.006Z,4.87
2017-08-21T00:43:47.327Z,4.83
2017-08-21T00:46:14.631Z,4.70
2017-08-21T00:48:42.146Z,4.63
2017-08-21T00:51:09.467Z,4.53
2017-08-21T00:53:36.780Z,4.10
2017-08-21T00:56:04.069Z,4.50
2017-08-21T00:58:31.384Z,4.70
2017-08-21T01:00:58.692Z,4.30
2017-08-21T01:03:25.972Z,5.10
2017-08-21T01:05:53.273Z,4.93
2017-08-21T01:08:20.564Z,5.17
2017-08-21T01:10:48.213Z,4.77
2017-08-21T01:13:15.511Z,4.97
2017-08-21T01:15:43.015Z,4.00
2017-08-21T01:18:10.625Z,4.57
2017-08-21T01:20:38.098Z,3.60
2017-08-21T01:23:05.723Z,4.40
2017-08-21T01:25:33.202Z,4.00
2017-08-21T01:28:00.517Z,4.50
2017-08-21T01:30:27.820Z,4.03
2017-08-21T01:32:55.126Z,4.27
2017-08-21T01:35:22.475Z,3.87
2017-08-21T01:37:50.177Z,4.30
2017-08-21T01:40:17.494Z,3.93
2017-08-21T01:42:44.990Z,4.10
2017-08-21T01:45:12.349Z,3.90
2017-08-21T01:47:39.648Z,4.30
2017-08-21T01:50:06.954Z,4.60
2017-08-21T01:52:34.456Z,4.23
2017-08-21T01:55:02.093Z,3.90
2017-08-21T01:57:29.400Z,4.50
2017-08-21T01:59:56.699Z,4.13
2017-08-21T02:02:24.028Z,3.90
2017-08-21T02:04:51.340Z,4.60
2017-08-21T02:07:18.662Z,4.80
2017-08-21T02:09:45.953Z,4.77
2017-08-21T02:12:13.281Z,4.33
2017-08-21T02:14:40.620Z,5.20
2017-08-21T02:17:07.929Z,4.80
2017-08-21T02:19:35.233Z,5.00
2017-08-21T02:22:02.562Z,4.87
2017-08-21T02:24:29.868Z,5.07
2017-08-21T02:26:57.210Z,5.37
2017-08-21T02:29:24.762Z,5.27
2017-08-21T02:31:52.048Z,5.60
2017-08-21T02:34:19.412Z,4.43
2017-08-21T02:36:46.875Z,5.40
2017-08-21T02:39:14.367Z,5.17
2017-08-21T02:41:42.909Z,5.00
2017-08-21T02:44:10.217Z,4.63
2017-08-21T02:46:37.687Z,5.40
2017-08-21T02:49:05.032Z,4.87
2017-08-21T02:51:32.674Z,5.40
2017-08-21T02:53:59.991Z,5.60
2017-08-21T02:56:27.299Z,5.63
2017-08-21T02:58:54.816Z,5.13
2017-08-21T03:01:22.265Z,5.40
2017-08-21T03:03:49.616Z,5.60
2017-08-21T03:06:16.949Z,4.93
2017-08-21T03:08:44.326Z,5.20
2017-08-21T03:11:11.651Z,5.47
2017-08-21T03:13:38.981Z,5.00
2017-08-21T03:16:06.287Z,5.50
2017-08-21T03:18:33.615Z,5.23
2017-08-21T03:21:00.894Z,5.10
2017-08-21T03:23:28.228Z,5.80
2017-08-21T03:25:55.553Z,5.10
2017-08-21T03:28:22.891Z,5.50
2017-08-21T03:30:50.332Z,5.00
2017-08-21T03:33:17.629Z,5.80
2017-08-21T03:35:44.941Z,5.10
2017-08-21T03:38:12.259Z,5.37
2017-08-21T03:40:39.583Z,5.70
2017-08-21T03:43:06.886Z,5.00
2017-08-21T03:45:34.212Z,5.30
2017-08-21T03:48:01.842Z,5.70
2017-08-21T03:50:29.154Z,5.37
2017-08-21T03:52:56.451Z,5.33
2017-08-21T03:55:23.760Z,5.17
2017-08-21T03:57:51.087Z,5.40
2017-08-21T04:00:18.402Z,5.47
2017-08-21T04:02:45.711Z,5.73
2017-08-21T04:05:13.033Z,5.30
2017-08-21T04:07:40.365Z,5.70
2017-08-21T04:10:07.694Z,5.03
2017-08-21T04:12:34.989Z,5.57
2017-08-21T04:15:02.294Z,5.50
2017-08-21T04:17:29.920Z,5.20
2017-08-21T04:19:57.220Z,5.40
2017-08-21T04:22:24.918Z,5.13
2017-08-21T04:24:52.240Z,5.13
2017-08-21T04:27:19.528Z,5.27
2017-08-21T04:29:47.177Z,5.30
2017-08-21T04:32:14.773Z,5.40
2017-08-21T04:34:42.064Z,5.50
2017-08-21T04:37:09.789Z,5.90
2017-08-21T04:39:38.367Z,5.33
2017-08-21T04:42:05.659Z,5.70
2017-08-21T04:44:32.982Z,5.40
2017-08-21T04:47:00.295Z,5.03
2017-08-21T04:49:27.618Z,4.90
2017-08-21T04:51:54.980Z,5.53
2017-08-21T04:54:22.296Z,5.37
2017-08-21T04:56:49.609Z,5.70
2017-08-21T04:59:16.905Z,5.50
2017-08-21T05:01:44.242Z,5.20
2017-08-21T05:04:11.545Z,5.50
2017-08-21T05:06:38.868Z,5.77
2017-08-21T05:09:06.173Z,5.63
2017-08-21T05:11:33.538Z,5.60
2017-08-21T05:14:00.840Z,5.43
2017-08-21T05:16:29.170Z,5.77
2017-08-21T05:18:56.490Z,6.10
2017-08-21T05:21:23.802Z,5.93
2017-08-21T05:23:51.146Z,5.70
2017-08-21T05:26:18.470Z,6.50
2017-08-21T05:28:45.812Z,6.23
2017-08-21T05:31:13.212Z,5.87
2017-08-21T05:33:40.563Z,6.80
2017-08-21T05:36:07.856Z,6.00
2017-08-21T05:38:35.178Z,6.70
2017-08-21T05:41:02.492Z,5.93
2017-08-21T05:43:29.800Z,6.23
2017-08-21T05:45:57.114Z,6.90
2017-08-21T05:48:24.426Z,6.67
2017-08-21T05:50:52.075Z,7.27
2017-08-21T05:53:19.456Z,6.60
2017-08-21T05:55:46.761Z,7.30
2017-08-21T05:58:14.093Z,6.90
2017-08-21T06:00:41.394Z,7.40
2017-08-21T06:03:08.726Z,7.47
2017-08-21T06:05:36.031Z,7.13
2017-08-21T06:08:03.378Z,8.33
2017-08-21T06:10:30.726Z,7.93
2017-08-21T06:12:58.038Z,7.50
2017-08-21T06:15:25.345Z,7.47
2017-08-21T06:17:52.662Z,7.20
2017-08-21T06:20:20.292Z,6.80
2017-08-21T06:22:47.608Z,7.33
2017-08-21T06:25:15.012Z,7.87
2017-08-21T06:27:42.298Z,6.43
2017-08-21T06:30:09.719Z,7.20
2017-08-21T06:32:37.005Z,6.37
2017-08-21T06:35:04.334Z,7.60
2017-08-21T06:37:31.654Z,7.67
2017-08-21T06:39:58.974Z,7.67
2017-08-21T06:42:26.282Z,7.30
2017-08-21T06:44:53.602Z,7.57
2017-08-21T06:47:20.914Z,6.90
2017-08-21T06:49:48.217Z,6.67
2017-08-21T06:52:15.521Z,6.03
2017-08-21T06:54:43.189Z,6.97
2017-08-21T06:57:10.533Z,6.70
2017-08-21T06:59:37.834Z,7.00
2017-08-21T07:02:05.194Z,6.60
2017-08-21T07:04:32.518Z,6.10
2017-08-21T07:06:59.862Z,6.10
2017-08-21T07:09:27.190Z,5.83
2017-08-21T07:11:54.510Z,5.90
2017-08-21T07:14:21.796Z,5.70
2017-08-21T07:16:49.137Z,5.60
2017-08-21T07:19:16.485Z,5.17
2017-08-21T07:21:43.820Z,5.50
2017-08-21T07:24:11.132Z,5.43
2017-08-21T07:26:38.457Z,6.00
2017-08-21T07:29:05.757Z,5.53
2017-08-21T07:31:33.141Z,6.70
2017-08-21T07:34:00.454Z,5.40
2017-08-21T07:36:27.767Z,5.60
2017-08-21T07:38:55.188Z,5.97
2017-08-21T07:41:22.530Z,6.40
2017-08-21T07:43:49.837Z,5.27
2017-08-21T07:46:17.167Z,5.30
2017-08-21T07:48:44.475Z,5.80
2017-08-21T07:51:11.798Z,5.20
2017-08-21T07:53:39.114Z,5.30
2017-08-21T07:56:06.405Z,5.30
2017-08-21T07:58:33.722Z,5.10
2017-08-21T08:01:01.049Z,5.00
2017-08-21T08:03:28.375Z,5.30
2017-08-21T08:05:55.673Z,4.90
2017-08-21T08:08:23.009Z,5.27
2017-08-21T08:10:50.644Z,5.03
2017-08-21T08:13:17.973Z,4.80
2017-08-21T08:15:45.325Z,5.57
2017-08-21T08:18:12.654Z,5.73
2017-08-21T08:20:40.009Z,5.20
2017-08-21T08:23:07.339Z,5.33
2017-08-21T08:25:34.692Z,4.70
2017-08-21T08:28:02.015Z,4.47
2017-08-21T08:30:29.321Z,4.70
2017-08-21T08:32:56.604Z,4.30
2017-08-21T08:35:23.936Z,4.33
2017-08-21T08:37:51.284Z,4.30
2017-08-21T08:40:18.602Z,4.23
2017-08-21T08:42:45.910Z,4.23
2017-08-21T08:45:13.209Z,4.47
2017-08-21T08:47:40.552Z,4.13
2017-08-21T08:50:07.889Z,4.40
2017-08-21T08:52:35.208Z,4.83
2017-08-21T08:55:02.512Z,3.90
2017-08-21T08:57:29.820Z,4.60
2017-08-21T08:59:57.132Z,3.80
2017-08-21T09:02:24.441Z,3.87
2017-08-21T09:04:51.737Z,4.13
2017-08-21T09:07:19.097Z,4.20
2017-08-21T09:09:46.701Z,4.40
2017-08-21T09:12:14.021Z,3.57
2017-08-21T09:14:41.300Z,4.10
2017-08-21T09:17:08.640Z,3.90
2017-08-21T09:19:35.973Z,4.47
2017-08-21T09:22:03.355Z,4.33
2017-08-21T09:24:30.657Z,5.00
2017-08-21T09:26:58.010Z,4.20
2017-08-21T09:29:25.350Z,4.43
2017-08-21T09:31:52.705Z,4.17
2017-08-21T09:34:20.956Z,4.17
2017-08-21T09:36:48.606Z,3.93
2017-08-21T09:39:15.934Z,4.13
2017-08-21T09:41:44.206Z,3.73
2017-08-21T09:44:11.546Z,3.80
2017-08-21T09:46:38.914Z,3.60
2017-08-21T09:49:06.221Z,3.50
2017-08-21T09:51:33.578Z,3.30
2017-08-21T09:54:00.902Z,3.80
2017-08-21T09:56:28.692Z,3.87
2017-08-21T09:58:56.013Z,3.70
2017-08-21T10:01:23.338Z,3.67
2017-08-21T10:03:50.800Z,3.00
2017-08-21T10:06:18.076Z,3.13
2017-08-21T10:08:45.389Z,3.90
2017-08-21T10:11:12.702Z,3.47
2017-08-21T10:13:40.015Z,3.50
2017-08-21T10:16:07.378Z,3.57
2017-08-21T10:18:34.685Z,3.30
2017-08-21T10:21:01.990Z,3.27
2017-08-21T10:23:29.328Z,3.40
2017-08-21T10:25:56.693Z,4.10
2017-08-21T10:28:24.016Z,3.30
2017-08-21T10:30:51.321Z,3.33
2017-08-21T10:33:18.773Z,3.07
2017-08-21T10:35:46.127Z,3.27
2017-08-21T10:38:13.477Z,3.47
2017-08-21T10:40:40.785Z,2.90
2017-08-21T10:43:08.385Z,3.10
2017-08-21T10:45:35.689Z,3.00
2017-08-21T10:48:03.054Z,3.20
2017-08-21T10:50:30.344Z,3.20
2017-08-21T10:52:57.689Z,3.17
2017-08-21T10:55:25.050Z,2.83
2017-08-21T10:57:52.340Z,3.00
2017-08-21T11:00:20.081Z,3.10
2017-08-21T11:02:47.375Z,3.40
2017-08-21T11:05:14.740Z,3.10
2017-08-21T11:07:42.068Z,2.73
2017-08-21T11:10:09.434Z,3.00
2017-08-21T11:12:36.729Z,3.27
2017-08-21T11:15:04.028Z,2.87
2017-08-21T11:17:31.336Z,3.30
2017-08-21T11:19:58.675Z,3.07
2017-08-21T11:22:25.975Z,2.70
2017-08-21T11:24:53.294Z,3.33
2017-08-21T11:27:20.885Z,3.63
2017-08-21T11:29:48.197Z,4.23
2017-08-21T11:32:15.520Z,3.70
2017-08-21T11:34:42.830Z,3.80
2017-08-21T11:37:10.153Z,3.60
2017-08-21T11:39:37.487Z,3.80
2017-08-21T11:42:04.778Z,3.50
2017-08-21T11:44:32.096Z,3.30
2017-08-21T11:46:59.437Z,3.03
2017-08-21T11:49:26.773Z,2.73
2017-08-21T11:51:54.093Z,2.90
2017-08-21T11:54:21.406Z,3.33
2017-08-21T11:56:48.710Z,2.60
2017-08-21T11:59:16.946Z,2.90
2017-08-21T12:01:44.289Z,2.40
2017-08-21T12:04:11.642Z,2.60
2017-08-21T12:06:39.895Z,3.40
2017-08-21T12:09:08.152Z,3.30
2017-08-21T12:11:35.505Z,4.17
2017-08-21T12:14:03.137Z,3.60
2017-08-21T12:16:30.441Z,4.40
2017-08-21T12:18:57.733Z,3.20
2017-08-21T12:21:25.090Z,3.47
2017-08-21T12:23:52.405Z,2.83
2017-08-21T12:26:19.776Z,3.10
2017-08-21T12:28:47.091Z,2.90
2017-08-21T12:31:14.439Z,2.87
2017-08-21T12:33:45.351Z,2.80
2017-08-21T12:36:12.715Z,2.80
2017-08-21T12:38:40.006Z,3.90
2017-08-21T12:41:07.317Z,4.87
2017-08-21T12:43:34.623Z,4.83
2017-08-21T12:46:01.966Z,4.27
2017-08-21T12:48:29.293Z,4.50
2017-08-21T12:50:56.610Z,4.27
2017-08-21T12:53:23.911Z,4.20
2017-08-21T12:55:51.237Z,4.00
2017-08-21T12:58:18.548Z,3.60
2017-08-21T13:00:45.871Z,3.60
2017-08-21T13:03:13.174Z,4.03
2017-08-21T13:05:40.523Z,4.13
2017-08-21T13:08:07.831Z,3.80
2017-08-21T13:10:35.222Z,4.70
2017-08-21T13:13:02.566Z,4.30
2017-08-21T13:15:29.872Z,3.80
2017-08-21T13:17:57.235Z,3.50
2017-08-21T13:20:24.529Z,3.27
2017-08-21T13:22:51.883Z,3.13
2017-08-21T13:25:19.224Z,3.43
2017-08-21T13:27:46.562Z,3.40
2017-08-21T13:30:13.914Z,3.30
2017-08-21T13:32:41.562Z,4.10
2017-08-21T13:35:08.895Z,3.87
2017-08-21T13:37:36.267Z,3.47
2017-08-21T13:40:03.676Z,3.67
2017-08-21T13:42:31.027Z,3.27
2017-08-21T13:44:58.351Z,3.80
2017-08-21T13:47:25.713Z,3.83
2017-08-21T13:49:53.144Z,3.40
2017-08-21T13:52:20.489Z,3.93
2017-08-21T13:54:47.942Z,3.80
2017-08-21T13:57:15.895Z,2.90
2017-08-21T13:59:43.289Z,3.10
2017-08-21T14:02:10.609Z,3.53
2017-08-21T14:04:37.927Z,2.90
2017-08-21T14:07:05.255Z,4.17
2017-08-21T14:09:32.674Z,3.67
2017-08-21T14:12:00.046Z,3.93
2017-08-21T14:14:27.359Z,3.53
2017-08-21T14:16:54.718Z,4.10
2017-08-21T14:19:22.049Z,3.53
2017-08-21T14:21:49.392Z,3.53
2017-08-21T14:24:16.726Z,4.43
2017-08-21T14:26:44.318Z,4.93
2017-08-21T14:29:11.676Z,4.90
2017-08-21T14:31:38.982Z,5.00
2017-08-21T14:34:06.332Z,4.57
2017-08-21T14:36:33.707Z,5.43
2017-08-21T14:39:01.051Z,5.60
2017-08-21T14:41:28.362Z,5.37
2017-08-21T14:43:56.077Z,5.80
2017-08-21T14:46:23.408Z,6.20
2017-08-21T14:48:51.223Z,7.33
2017-08-21T14:51:18.561Z,6.87
2017-08-21T14:53:45.854Z,5.60
2017-08-21T14:56:13.337Z,6.17
2017-08-21T14:58:40.646Z,6.23
2017-08-21T15:01:07.999Z,6.47
2017-08-21T15:03:35.341Z,7.03
2017-08-21T15:06:02.749Z,4.60
2017-08-21T15:08:30.045Z,4.00
2017-08-21T15:10:57.578Z,3.27
2017-08-21T15:13:25.311Z,3.03
2017-08-21T15:15:52.684Z,3.10
2017-08-21T15:18:19.987Z,3.90
2017-08-21T15:20:47.411Z,3.27
2017-08-21T15:23:14.770Z,4.70
2017-08-21T15:25:42.183Z,4.63
2017-08-21T15:28:09.491Z,5.40
2017-08-21T15:30:36.817Z,5.90
2017-08-21T15:33:04.129Z,3.63
2017-08-21T15:35:31.441Z,3.23
2017-08-21T15:37:58.765Z,3.33
2017-08-21T15:40:26.193Z,3.60
2017-08-21T15:42:53.495Z,3.53
2017-08-21T15:45:21.275Z,3.00
2017-08-21T15:47:48.617Z,2.30
2017-08-21T15:50:15.958Z,3.93
2017-08-21T15:52:43.299Z,3.67
2017-08-21T15:55:10.618Z,2.70
2017-08-21T15:57:37.970Z,2.87
2017-08-21T16:00:05.294Z,2.70
2017-08-21T16:02:32.617Z,3.20
2017-08-21T16:04:59.906Z,3.93
2017-08-21T16:07:27.244Z,4.00
2017-08-21T16:09:54.551Z,2.80
2017-08-21T16:12:21.862Z,3.53
2017-08-21T16:14:49.183Z,2.90
2017-08-21T16:17:17.432Z,2.80
2017-08-21T16:19:45.063Z,3.80
2017-08-21T16:22:12.441Z,4.23
2017-08-21T16:24:39.751Z,3.57
2017-08-21T16:27:07.066Z,2.97
2017-08-21T16:29:34.391Z,2.90
2017-08-21T16:32:01.685Z,3.20
2017-08-21T16:34:29.039Z,3.13
2017-08-21T16:36:56.341Z,3.70
2017-08-21T16:39:23.695Z,4.20
2017-08-21T16:41:51.343Z,3.63
2017-08-21T16:44:18.681Z,3.00
2017-08-21T16:46:46.005Z,3.13
2017-08-21T16:49:13.359Z,2.70
2017-08-21T16:51:40.705Z,2.90
2017-08-21T16:54:08.074Z,3.00
2017-08-21T16:56:35.414Z,2.70
2017-08-21T16:59:02.741Z,2.60
2017-08-21T17:01:30.056Z,3.10
2017-08-21T17:03:57.431Z,2.87
2017-08-21T17:06:24.742Z,3.10
2017-08-21T17:08:52.096Z,3.10
2017-08-21T17:11:19.669Z,3.23
2017-08-21T17:13:47.044Z,2.97
2017-08-21T17:16:14.365Z,2.90
2017-08-21T17:18:41.674Z,3.17
2017-08-21T17:21:09.125Z,2.83
2017-08-21T17:23:36.447Z,3.30
2017-08-21T17:26:03.751Z,3.13
2017-08-21T17:28:31.086Z,3.33
2017-08-21T17:30:58.423Z,3.33
2017-08-21T17:33:25.738Z,3.10
2017-08-21T17:35:53.038Z,4.30
2017-08-21T17:38:20.342Z,3.57
2017-08-21T17:40:47.673Z,3.20
2017-08-21T17:43:15.022Z,2.97
2017-08-21T17:45:42.367Z,3.23
2017-08-21T17:48:09.688Z,3.40
2017-08-21T17:50:37.078Z,3.37
2017-08-21T17:53:04.374Z,3.30
2017-08-21T17:55:31.838Z,3.27
2017-08-21T17:57:59.141Z,3.30
2017-08-21T18:00:26.523Z,3.60
2017-08-21T18:02:54.147Z,3.37
2017-08-21T18:05:21.486Z,3.27
2017-08-21T18:07:48.818Z,3.30
2017-08-21T18:10:16.148Z,3.40
2017-08-21T18:12:43.433Z,3.73
2017-08-21T18:15:10.773Z,2.90
2017-08-21T18:17:38.097Z,3.27
2017-08-21T18:20:05.430Z,3.20
2017-08-21T18:22:32.737Z,3.10
2017-08-21T18:25:00.052Z,3.10
2017-08-21T18:27:27.385Z,3.30
2017-08-21T18:29:54.694Z,4.30
2017-08-21T18:32:22.028Z,3.30
2017-08-21T18:34:49.579Z,3.40
2017-08-21T18:37:16.885Z,3.40
2017-08-21T18:39:44.195Z,3.70
2017-08-21T18:42:11.508Z,3.37
2017-08-21T18:44:38.838Z,3.63
2017-08-21T18:47:06.204Z,3.50
2017-08-21T18:49:33.550Z,3.63
2017-08-21T18:52:00.873Z,4.10
2017-08-21T18:54:28.211Z,3.90
2017-08-21T18:56:55.568Z,4.40
2017-08-21T18:59:22.891Z,3.87
2017-08-21T19:01:50.235Z,3.90
2017-08-21T19:04:17.562Z,3.77
2017-08-21T19:06:44.860Z,3.90
2017-08-21T19:09:12.461Z,3.90
2017-08-21T19:11:39.807Z,4.40
2017-08-21T19:14:07.146Z,4.87
2017-08-21T19:16:34.449Z,4.37
2017-08-21T19:19:01.767Z,4.50
2017-08-21T19:21:29.093Z,4.60
2017-08-21T19:23:56.410Z,4.80
2017-08-21T19:26:23.727Z,4.70
2017-08-21T19:28:51.039Z,4.60
2017-08-21T19:31:18.341Z,5.60
2017-08-21T19:33:45.674Z,5.40
2017-08-21T19:36:13.012Z,4.77
2017-08-21T19:38:40.335Z,4.57
2017-08-21T19:41:07.625Z,4.73
2017-08-21T19:43:34.946Z,4.43
2017-08-21T19:46:02.237Z,5.30
2017-08-21T19:48:29.561Z,5.17
2017-08-21T19:50:56.853Z,4.87
2017-08-21T19:53:24.307Z,4.93
2017-08-21T19:55:51.633Z,4.33
2017-08-21T19:58:18.944Z,4.67
2017-08-21T20:01:25.558Z,5.00
2017-08-21T20:03:52.869Z,4.30
2017-08-21T20:06:20.216Z,4.00
2017-08-21T20:08:47.585Z,4.53
2017-08-21T20:11:14.885Z,4.70
2017-08-21T20:13:42.203Z,4.60
2017-08-21T20:16:09.502Z,4.60
2017-08-21T20:18:36.838Z,4.47
2017-08-21T20:21:04.149Z,4.47
2017-08-21T20:23:31.463Z,3.97
2017-08-21T20:25:58.767Z,4.03
2017-08-21T20:28:26.101Z,4.30
2017-08-21T20:30:53.401Z,4.50
2017-08-21T20:33:20.739Z,4.30
2017-08-21T20:35:48.034Z,4.90
2017-08-21T20:38:15.331Z,4.50
2017-08-21T20:40:42.637Z,4.40
2017-08-21T20:43:10.022Z,5.13
2017-08-21T20:45:37.377Z,4.60
2017-08-21T20:48:04.702Z,3.93
2017-08-21T20:50:32.052Z,4.50
2017-08-21T20:52:59.677Z,4.57
2017-08-21T20:55:26.995Z,4.20
2017-08-21T20:57:54.290Z,4.17
2017-08-21T21:00:21.606Z,4.50
2017-08-21T21:02:48.901Z,4.50
2017-08-21T21:05:16.214Z,4.50
2017-08-21T21:07:43.543Z,4.57
2017-08-21T21:10:10.850Z,4.53
2017-08-21T21:12:38.178Z,4.73
2017-08-21T21:15:05.500Z,4.97
2017-08-21T21:17:33.140Z,4.40
2017-08-21T21:20:00.502Z,4.40
2017-08-21T21:22:27.846Z,4.50
2017-08-21T21:24:55.149Z,4.30
2017-08-21T21:27:22.474Z,4.90
2017-08-21T21:29:49.825Z,4.40
2017-08-21T21:32:17.159Z,4.70
2017-08-21T21:34:44.503Z,4.50
2017-08-21T21:37:11.810Z,4.97
2017-08-21T21:39:39.124Z,5.10
2017-08-21T21:42:06.452Z,4.47
2017-08-21T21:44:33.754Z,4.10
2017-08-21T21:47:01.070Z,5.43
2017-08-21T21:49:28.375Z,4.60
2017-08-21T21:51:55.998Z,4.57
2017-08-21T21:54:23.328Z,4.70
2017-08-21T21:56:50.712Z,5.00
2017-08-21T21:59:18.023Z,5.77
2017-08-21T22:01:45.374Z,5.57
2017-08-21T22:04:12.708Z,4.63
2017-08-21T22:06:40.365Z,4.97
2017-08-21T22:09:07.678Z,4.70
2017-08-21T22:11:34.978Z,4.93
2017-08-21T22:14:02.502Z,5.20
2017-08-21T22:16:29.819Z,5.00
2017-08-21T22:18:57.179Z,5.07
2017-08-21T22:21:24.489Z,4.47
2017-08-21T22:23:51.811Z,4.60
2017-08-21T22:26:19.115Z,5.00
2017-08-21T22:28:46.435Z,4.60
2017-08-21T22:31:13.759Z,4.63
2017-08-21T22:33:41.110Z,4.30
2017-08-21T22:36:08.447Z,4.40
2017-08-21T22:38:35.790Z,4.07
2017-08-21T22:41:03.114Z,4.40
2017-08-21T22:43:30.430Z,4.10
2017-08-21T22:45:57.720Z,4.57
2017-08-21T22:48:25.070Z,4.27
2017-08-21T22:50:52.396Z,4.20
2017-08-21T22:53:19.776Z,3.60
2017-08-21T22:55:47.111Z,4.00
2017-08-21T22:58:14.404Z,4.10
2017-08-21T23:00:41.713Z,3.80
2017-08-21T23:03:09.177Z,3.63
2017-08-21T23:05:36.503Z,3.90
2017-08-21T23:08:03.787Z,3.67
2017-08-21T23:10:31.421Z,3.47
2017-08-21T23:12:58.721Z,3.80
2017-08-21T23:15:26.025Z,3.70
2017-08-21T23:17:53.354Z,4.13
2017-08-21T23:20:20.705Z,3.10
2017-08-21T23:22:48.006Z,3.60
2017-08-21T23:25:15.329Z,3.70
2017-08-21T23:27:42.635Z,3.93
2017-08-21T23:30:10.293Z,3.90
2017-08-21T23:32:37.602Z,4.00
2017-08-21T23:35:04.931Z,4.00
2017-08-21T23:37:32.238Z,3.80
2017-08-21T23:39:59.723Z,3.80
2017-08-21T23:42:27.356Z,3.90
2017-08-21T23:44:54.653Z,3.70
2017-08-21T23:47:21.969Z,3.70
2017-08-21T23:49:49.583Z,4.13
2017-08-21T23:52:16.908Z,3.33
2017-08-21T23:54:44.195Z,4.10
2017-08-21T23:57:11.856Z,3.90
2017-08-21T23:59:39.188Z,3.80
